sensor_id;sensor_type;location;lat;lon;timestamp;P1;durP1;ratioP1;P2;durP2;ratioP2
37507;SDS011;23360;46.936;15.514;2022-07-31T00:00:11;4.25;;;1.35;;
37507;SDS011;23360;46.936;15.514;2022-07-31T00:02:38;11.27;;;1.55;;
37507;SDS011;23360;46.936;15.514;2022-07-31T00:05:04;4.68;;;1.25;;
37507;SDS011;23360;46.936;15.514;2022-07-31T00:07:38;5.93;;;1.40;;
37507;SDS011;23360;46.936;15.514;2022-07-31T00:10:05;3.67;;;1.63;;
37507;SDS011;23360;46.936;15.514;2022-07-31T00:12:32;5.18;;;1.42;;
37507;SDS011;23360;46.936;15.514;2022-07-31T00:15:00;3.85;;;1.23;;
37507;SDS011;23360;46.936;15.514;2022-07-31T00:17:27;4.53;;;1.38;;
37507;SDS011;23360;46.936;15.514;2022-07-31T00:19:53;5.55;;;1.33;;
37507;SDS011;23360;46.936;15.514;2022-07-31T00:22:20;2.90;;;1.30;;
37507;SDS011;23360;46.936;15.514;2022-07-31T00:24:46;4.05;;;1.48;;
37507;SDS011;23360;46.936;15.514;2022-07-31T00:27:12;3.38;;;1.30;;
37507;SDS011;23360;46.936;15.514;2022-07-31T00:29:39;2.88;;;1.38;;
37507;SDS011;23360;46.936;15.514;2022-07-31T00:32:05;3.88;;;1.50;;
37507;SDS011;23360;46.936;15.514;2022-07-31T00:34:32;3.25;;;1.40;;
37507;SDS011;23360;46.936;15.514;2022-07-31T00:37:09;4.03;;;1.15;;
37507;SDS011;23360;46.936;15.514;2022-07-31T00:39:35;6.15;;;1.30;;
37507;SDS011;23360;46.936;15.514;2022-07-31T00:42:02;6.93;;;1.75;;
37507;SDS011;23360;46.936;15.514;2022-07-31T00:44:28;4.03;;;1.52;;
37507;SDS011;23360;46.936;15.514;2022-07-31T00:46:56;2.88;;;1.23;;
37507;SDS011;23360;46.936;15.514;2022-07-31T00:49:23;4.10;;;1.23;;
37507;SDS011;23360;46.936;15.514;2022-07-31T00:51:49;10.73;;;1.25;;
37507;SDS011;23360;46.936;15.514;2022-07-31T00:54:17;2.70;;;1.08;;
37507;SDS011;23360;46.936;15.514;2022-07-31T00:56:48;2.55;;;1.20;;
37507;SDS011;23360;46.936;15.514;2022-07-31T00:59:15;6.53;;;1.67;;
37507;SDS011;23360;46.936;15.514;2022-07-31T01:01:49;5.28;;;1.77;;
37507;SDS011;23360;46.936;15.514;2022-07-31T01:04:16;3.05;;;1.48;;
37507;SDS011;23360;46.936;15.514;2022-07-31T01:06:45;3.88;;;1.48;;
37507;SDS011;23360;46.936;15.514;2022-07-31T01:09:12;4.43;;;1.23;;
37507;SDS011;23360;46.936;15.514;2022-07-31T01:11:49;3.00;;;1.35;;
37507;SDS011;23360;46.936;15.514;2022-07-31T01:14:16;4.72;;;1.70;;
37507;SDS011;23360;46.936;15.514;2022-07-31T01:16:48;3.13;;;1.50;;
37507;SDS011;23360;46.936;15.514;2022-07-31T01:24:59;6.40;;;1.70;;
37507;SDS011;23360;46.936;15.514;2022-07-31T01:27:31;6.90;;;1.63;;
37507;SDS011;23360;46.936;15.514;2022-07-31T01:30:15;8.88;;;1.55;;
37507;SDS011;23360;46.936;15.514;2022-07-31T01:32:43;4.05;;;1.60;;
37507;SDS011;23360;46.936;15.514;2022-07-31T01:35:17;4.63;;;1.40;;
37507;SDS011;23360;46.936;15.514;2022-07-31T01:37:57;4.05;;;1.20;;
37507;SDS011;23360;46.936;15.514;2022-07-31T01:43:00;2.63;;;1.40;;
37507;SDS011;23360;46.936;15.514;2022-07-31T01:45:27;3.65;;;1.40;;
37507;SDS011;23360;46.936;15.514;2022-07-31T01:47:55;4.00;;;1.42;;
37507;SDS011;23360;46.936;15.514;2022-07-31T01:50:23;3.95;;;1.58;;
37507;SDS011;23360;46.936;15.514;2022-07-31T01:53:09;7.65;;;1.35;;
37507;SDS011;23360;46.936;15.514;2022-07-31T01:55:39;4.25;;;1.50;;
37507;SDS011;23360;46.936;15.514;2022-07-31T01:58:26;4.47;;;1.60;;
37507;SDS011;23360;46.936;15.514;2022-07-31T02:00:54;4.50;;;1.50;;
37507;SDS011;23360;46.936;15.514;2022-07-31T02:03:25;6.63;;;1.50;;
37507;SDS011;23360;46.936;15.514;2022-07-31T02:06:13;2.25;;;1.02;;
37507;SDS011;23360;46.936;15.514;2022-07-31T02:08:44;4.20;;;1.63;;
37507;SDS011;23360;46.936;15.514;2022-07-31T02:11:11;9.07;;;1.73;;
37507;SDS011;23360;46.936;15.514;2022-07-31T02:13:39;3.53;;;1.40;;
37507;SDS011;23360;46.936;15.514;2022-07-31T02:16:05;4.18;;;1.52;;
37507;SDS011;23360;46.936;15.514;2022-07-31T02:18:33;3.40;;;1.30;;
37507;SDS011;23360;46.936;15.514;2022-07-31T02:21:00;3.42;;;1.63;;
37507;SDS011;23360;46.936;15.514;2022-07-31T02:23:26;6.80;;;1.55;;
37507;SDS011;23360;46.936;15.514;2022-07-31T02:25:52;4.88;;;1.65;;
37507;SDS011;23360;46.936;15.514;2022-07-31T02:28:19;5.40;;;1.60;;
37507;SDS011;23360;46.936;15.514;2022-07-31T02:30:47;5.13;;;1.42;;
37507;SDS011;23360;46.936;15.514;2022-07-31T02:33:19;4.00;;;1.48;;
37507;SDS011;23360;46.936;15.514;2022-07-31T02:35:47;7.05;;;1.73;;
37507;SDS011;23360;46.936;15.514;2022-07-31T02:38:15;5.50;;;1.45;;
37507;SDS011;23360;46.936;15.514;2022-07-31T02:40:53;6.43;;;1.67;;
37507;SDS011;23360;46.936;15.514;2022-07-31T02:43:20;6.05;;;1.60;;
37507;SDS011;23360;46.936;15.514;2022-07-31T02:45:47;3.13;;;1.30;;
37507;SDS011;23360;46.936;15.514;2022-07-31T02:48:13;5.45;;;1.73;;
37507;SDS011;23360;46.936;15.514;2022-07-31T02:50:41;4.90;;;1.60;;
37507;SDS011;23360;46.936;15.514;2022-07-31T02:53:07;6.65;;;1.83;;
37507;SDS011;23360;46.936;15.514;2022-07-31T02:55:34;7.18;;;1.90;;
37507;SDS011;23360;46.936;15.514;2022-07-31T02:58:01;3.53;;;1.58;;
37507;SDS011;23360;46.936;15.514;2022-07-31T03:00:28;3.97;;;1.73;;
37507;SDS011;23360;46.936;15.514;2022-07-31T03:02:56;5.43;;;1.50;;
37507;SDS011;23360;46.936;15.514;2022-07-31T03:05:23;3.55;;;1.70;;
37507;SDS011;23360;46.936;15.514;2022-07-31T03:07:51;3.40;;;1.88;;
37507;SDS011;23360;46.936;15.514;2022-07-31T03:10:17;4.32;;;1.60;;
37507;SDS011;23360;46.936;15.514;2022-07-31T03:12:47;9.63;;;2.00;;
37507;SDS011;23360;46.936;15.514;2022-07-31T03:15:15;5.00;;;2.00;;
37507;SDS011;23360;46.936;15.514;2022-07-31T03:17:42;5.53;;;2.10;;
37507;SDS011;23360;46.936;15.514;2022-07-31T03:20:11;4.53;;;1.90;;
37507;SDS011;23360;46.936;15.514;2022-07-31T03:22:39;9.85;;;2.10;;
37507;SDS011;23360;46.936;15.514;2022-07-31T03:25:05;3.60;;;1.80;;
37507;SDS011;23360;46.936;15.514;2022-07-31T03:27:32;3.10;;;1.60;;
37507;SDS011;23360;46.936;15.514;2022-07-31T03:29:59;5.07;;;2.17;;
37507;SDS011;23360;46.936;15.514;2022-07-31T03:32:25;3.60;;;1.70;;
37507;SDS011;23360;46.936;15.514;2022-07-31T03:34:51;6.80;;;1.73;;
37507;SDS011;23360;46.936;15.514;2022-07-31T03:37:18;8.15;;;1.60;;
37507;SDS011;23360;46.936;15.514;2022-07-31T03:39:45;4.05;;;1.80;;
37507;SDS011;23360;46.936;15.514;2022-07-31T03:42:11;5.10;;;1.73;;
37507;SDS011;23360;46.936;15.514;2022-07-31T03:44:44;4.68;;;1.73;;
37507;SDS011;23360;46.936;15.514;2022-07-31T03:47:11;3.88;;;1.67;;
37507;SDS011;23360;46.936;15.514;2022-07-31T03:49:41;3.70;;;1.48;;
37507;SDS011;23360;46.936;15.514;2022-07-31T03:52:08;7.30;;;1.90;;
37507;SDS011;23360;46.936;15.514;2022-07-31T03:54:37;7.00;;;1.85;;
37507;SDS011;23360;46.936;15.514;2022-07-31T03:57:04;9.13;;;2.25;;
37507;SDS011;23360;46.936;15.514;2022-07-31T03:59:32;5.03;;;1.80;;
37507;SDS011;23360;46.936;15.514;2022-07-31T04:02:13;5.72;;;1.80;;
37507;SDS011;23360;46.936;15.514;2022-07-31T04:04:42;5.45;;;1.88;;
37507;SDS011;23360;46.936;15.514;2022-07-31T04:07:09;7.57;;;2.03;;
37507;SDS011;23360;46.936;15.514;2022-07-31T04:09:36;6.75;;;1.40;;
37507;SDS011;23360;46.936;15.514;2022-07-31T04:12:04;3.03;;;1.40;;
37507;SDS011;23360;46.936;15.514;2022-07-31T04:14:31;4.18;;;1.60;;
37507;SDS011;23360;46.936;15.514;2022-07-31T04:16:58;3.38;;;1.60;;
37507;SDS011;23360;46.936;15.514;2022-07-31T04:19:24;3.30;;;1.33;;
37507;SDS011;23360;46.936;15.514;2022-07-31T04:21:51;3.97;;;1.60;;
37507;SDS011;23360;46.936;15.514;2022-07-31T04:24:17;5.35;;;1.42;;
37507;SDS011;23360;46.936;15.514;2022-07-31T04:26:47;3.65;;;1.42;;
37507;SDS011;23360;46.936;15.514;2022-07-31T04:29:14;5.05;;;1.45;;
37507;SDS011;23360;46.936;15.514;2022-07-31T04:31:41;6.03;;;1.70;;
37507;SDS011;23360;46.936;15.514;2022-07-31T04:34:07;4.88;;;1.90;;
37507;SDS011;23360;46.936;15.514;2022-07-31T04:36:34;6.13;;;1.52;;
37507;SDS011;23360;46.936;15.514;2022-07-31T04:39:01;11.75;;;1.45;;
37507;SDS011;23360;46.936;15.514;2022-07-31T04:41:28;4.57;;;1.63;;
37507;SDS011;23360;46.936;15.514;2022-07-31T04:43:54;8.15;;;1.80;;
37507;SDS011;23360;46.936;15.514;2022-07-31T04:46:23;5.00;;;1.90;;
37507;SDS011;23360;46.936;15.514;2022-07-31T04:48:49;5.28;;;1.48;;
37507;SDS011;23360;46.936;15.514;2022-07-31T04:51:16;8.25;;;2.10;;
37507;SDS011;23360;46.936;15.514;2022-07-31T04:53:44;3.65;;;1.60;;
37507;SDS011;23360;46.936;15.514;2022-07-31T04:56:10;5.35;;;1.77;;
37507;SDS011;23360;46.936;15.514;2022-07-31T04:58:56;5.32;;;2.00;;
37507;SDS011;23360;46.936;15.514;2022-07-31T05:01:22;3.75;;;1.58;;
37507;SDS011;23360;46.936;15.514;2022-07-31T05:03:49;5.97;;;1.70;;
37507;SDS011;23360;46.936;15.514;2022-07-31T05:06:15;3.58;;;1.73;;
37507;SDS011;23360;46.936;15.514;2022-07-31T05:08:42;10.32;;;2.38;;
37507;SDS011;23360;46.936;15.514;2022-07-31T05:11:09;5.63;;;1.48;;
37507;SDS011;23360;46.936;15.514;2022-07-31T05:13:54;4.15;;;1.45;;
37507;SDS011;23360;46.936;15.514;2022-07-31T05:16:21;5.55;;;1.48;;
37507;SDS011;23360;46.936;15.514;2022-07-31T05:18:48;3.33;;;1.30;;
37507;SDS011;23360;46.936;15.514;2022-07-31T05:21:14;3.55;;;1.55;;
37507;SDS011;23360;46.936;15.514;2022-07-31T05:23:42;8.40;;;1.33;;
37507;SDS011;23360;46.936;15.514;2022-07-31T05:26:08;4.63;;;1.30;;
37507;SDS011;23360;46.936;15.514;2022-07-31T05:28:36;4.68;;;1.58;;
37507;SDS011;23360;46.936;15.514;2022-07-31T05:31:02;6.25;;;1.65;;
37507;SDS011;23360;46.936;15.514;2022-07-31T05:33:29;5.78;;;2.03;;
37507;SDS011;23360;46.936;15.514;2022-07-31T05:35:56;5.70;;;2.53;;
37507;SDS011;23360;46.936;15.514;2022-07-31T05:38:23;5.50;;;1.23;;
37507;SDS011;23360;46.936;15.514;2022-07-31T05:40:50;5.20;;;1.52;;
37507;SDS011;23360;46.936;15.514;2022-07-31T05:43:16;5.63;;;1.70;;
37507;SDS011;23360;46.936;15.514;2022-07-31T05:45:43;6.00;;;1.90;;
37507;SDS011;23360;46.936;15.514;2022-07-31T05:48:12;4.57;;;1.23;;
37507;SDS011;23360;46.936;15.514;2022-07-31T05:50:43;8.48;;;1.75;;
37507;SDS011;23360;46.936;15.514;2022-07-31T05:53:09;6.57;;;1.90;;
37507;SDS011;23360;46.936;15.514;2022-07-31T05:55:40;9.23;;;1.65;;
37507;SDS011;23360;46.936;15.514;2022-07-31T05:58:07;2.35;;;1.20;;
37507;SDS011;23360;46.936;15.514;2022-07-31T06:00:38;4.93;;;1.70;;
37507;SDS011;23360;46.936;15.514;2022-07-31T06:03:05;3.55;;;1.40;;
37507;SDS011;23360;46.936;15.514;2022-07-31T06:05:32;8.77;;;1.25;;
37507;SDS011;23360;46.936;15.514;2022-07-31T06:07:59;5.90;;;1.60;;
37507;SDS011;23360;46.936;15.514;2022-07-31T06:10:26;3.40;;;1.50;;
37507;SDS011;23360;46.936;15.514;2022-07-31T06:12:53;5.07;;;1.60;;
37507;SDS011;23360;46.936;15.514;2022-07-31T06:15:20;4.72;;;1.55;;
37507;SDS011;23360;46.936;15.514;2022-07-31T06:17:46;5.28;;;1.33;;
37507;SDS011;23360;46.936;15.514;2022-07-31T06:20:13;2.63;;;1.10;;
37507;SDS011;23360;46.936;15.514;2022-07-31T06:22:39;2.15;;;1.10;;
37507;SDS011;23360;46.936;15.514;2022-07-31T06:25:08;6.05;;;1.60;;
37507;SDS011;23360;46.936;15.514;2022-07-31T06:27:36;4.53;;;1.60;;
37507;SDS011;23360;46.936;15.514;2022-07-31T06:30:06;4.00;;;1.38;;
37507;SDS011;23360;46.936;15.514;2022-07-31T06:32:33;7.63;;;1.77;;
37507;SDS011;23360;46.936;15.514;2022-07-31T06:35:00;4.90;;;1.45;;
37507;SDS011;23360;46.936;15.514;2022-07-31T06:37:28;3.67;;;1.40;;
37507;SDS011;23360;46.936;15.514;2022-07-31T06:39:54;8.43;;;1.60;;
37507;SDS011;23360;46.936;15.514;2022-07-31T06:42:22;3.83;;;1.40;;
37507;SDS011;23360;46.936;15.514;2022-07-31T06:44:48;2.83;;;1.20;;
37507;SDS011;23360;46.936;15.514;2022-07-31T06:47:16;7.40;;;1.40;;
37507;SDS011;23360;46.936;15.514;2022-07-31T06:49:42;2.83;;;1.33;;
37507;SDS011;23360;46.936;15.514;2022-07-31T06:52:09;6.13;;;1.63;;
37507;SDS011;23360;46.936;15.514;2022-07-31T06:54:36;6.50;;;1.42;;
37507;SDS011;23360;46.936;15.514;2022-07-31T06:57:02;8.80;;;1.73;;
37507;SDS011;23360;46.936;15.514;2022-07-31T06:59:29;7.65;;;1.63;;
37507;SDS011;23360;46.936;15.514;2022-07-31T07:02:06;5.45;;;1.52;;
37507;SDS011;23360;46.936;15.514;2022-07-31T07:04:33;6.35;;;1.40;;
37507;SDS011;23360;46.936;15.514;2022-07-31T07:07:20;3.80;;;1.65;;
37507;SDS011;23360;46.936;15.514;2022-07-31T07:09:47;3.78;;;1.52;;
37507;SDS011;23360;46.936;15.514;2022-07-31T07:12:14;5.85;;;1.67;;
37507;SDS011;23360;46.936;15.514;2022-07-31T07:14:42;4.72;;;1.25;;
37507;SDS011;23360;46.936;15.514;2022-07-31T07:17:09;3.10;;;1.25;;
37507;SDS011;23360;46.936;15.514;2022-07-31T07:19:38;6.03;;;1.38;;
37507;SDS011;23360;46.936;15.514;2022-07-31T07:22:04;3.58;;;1.23;;
37507;SDS011;23360;46.936;15.514;2022-07-31T07:24:31;4.47;;;1.42;;
37507;SDS011;23360;46.936;15.514;2022-07-31T07:26:58;4.38;;;1.30;;
37507;SDS011;23360;46.936;15.514;2022-07-31T07:29:24;2.45;;;1.17;;
37507;SDS011;23360;46.936;15.514;2022-07-31T07:31:51;4.82;;;1.70;;
37507;SDS011;23360;46.936;15.514;2022-07-31T07:34:17;5.28;;;1.40;;
37507;SDS011;23360;46.936;15.514;2022-07-31T07:36:44;4.95;;;1.88;;
37507;SDS011;23360;46.936;15.514;2022-07-31T07:39:10;10.73;;;1.90;;
37507;SDS011;23360;46.936;15.514;2022-07-31T07:41:37;2.90;;;1.13;;
37507;SDS011;23360;46.936;15.514;2022-07-31T07:44:04;3.58;;;1.38;;
37507;SDS011;23360;46.936;15.514;2022-07-31T07:46:31;6.00;;;1.50;;
37507;SDS011;23360;46.936;15.514;2022-07-31T07:48:58;4.53;;;1.55;;
37507;SDS011;23360;46.936;15.514;2022-07-31T07:51:24;6.55;;;1.80;;
37507;SDS011;23360;46.936;15.514;2022-07-31T07:53:51;8.50;;;1.90;;
37507;SDS011;23360;46.936;15.514;2022-07-31T07:56:17;5.18;;;1.35;;
37507;SDS011;23360;46.936;15.514;2022-07-31T07:58:44;4.40;;;1.60;;
37507;SDS011;23360;46.936;15.514;2022-07-31T08:01:10;3.65;;;1.35;;
37507;SDS011;23360;46.936;15.514;2022-07-31T08:03:37;3.65;;;1.65;;
37507;SDS011;23360;46.936;15.514;2022-07-31T08:06:17;4.57;;;1.52;;
37507;SDS011;23360;46.936;15.514;2022-07-31T08:08:43;5.35;;;1.88;;
37507;SDS011;23360;46.936;15.514;2022-07-31T08:11:10;9.27;;;1.42;;
37507;SDS011;23360;46.936;15.514;2022-07-31T08:13:43;4.90;;;1.30;;
37507;SDS011;23360;46.936;15.514;2022-07-31T08:16:15;3.05;;;1.40;;
37507;SDS011;23360;46.936;15.514;2022-07-31T08:18:41;4.53;;;1.42;;
37507;SDS011;23360;46.936;15.514;2022-07-31T08:21:08;3.67;;;1.35;;
37507;SDS011;23360;46.936;15.514;2022-07-31T08:23:34;3.38;;;1.60;;
37507;SDS011;23360;46.936;15.514;2022-07-31T08:26:01;7.68;;;1.13;;
37507;SDS011;23360;46.936;15.514;2022-07-31T08:28:31;5.80;;;1.60;;
37507;SDS011;23360;46.936;15.514;2022-07-31T08:30:58;6.10;;;1.73;;
37507;SDS011;23360;46.936;15.514;2022-07-31T08:33:25;3.92;;;1.30;;
37507;SDS011;23360;46.936;15.514;2022-07-31T08:35:51;4.68;;;1.45;;
37507;SDS011;23360;46.936;15.514;2022-07-31T08:38:19;4.82;;;1.70;;
37507;SDS011;23360;46.936;15.514;2022-07-31T08:40:45;4.90;;;1.70;;
37507;SDS011;23360;46.936;15.514;2022-07-31T08:43:12;8.13;;;1.45;;
37507;SDS011;23360;46.936;15.514;2022-07-31T08:45:59;4.13;;;1.67;;
37507;SDS011;23360;46.936;15.514;2022-07-31T08:48:29;3.08;;;1.40;;
37507;SDS011;23360;46.936;15.514;2022-07-31T08:50:56;4.20;;;1.42;;
37507;SDS011;23360;46.936;15.514;2022-07-31T08:53:23;3.30;;;1.38;;
37507;SDS011;23360;46.936;15.514;2022-07-31T08:55:50;4.50;;;1.88;;
37507;SDS011;23360;46.936;15.514;2022-07-31T08:58:22;4.35;;;1.85;;
37507;SDS011;23360;46.936;15.514;2022-07-31T09:00:49;5.15;;;1.70;;
37507;SDS011;23360;46.936;15.514;2022-07-31T09:03:16;4.97;;;1.35;;
37507;SDS011;23360;46.936;15.514;2022-07-31T09:05:43;3.22;;;1.23;;
37507;SDS011;23360;46.936;15.514;2022-07-31T09:08:10;4.22;;;1.42;;
37507;SDS011;23360;46.936;15.514;2022-07-31T09:10:40;2.78;;;1.00;;
37507;SDS011;23360;46.936;15.514;2022-07-31T09:13:17;5.53;;;1.30;;
37507;SDS011;23360;46.936;15.514;2022-07-31T09:15:44;7.18;;;1.73;;
37507;SDS011;23360;46.936;15.514;2022-07-31T09:18:18;2.58;;;1.15;;
37507;SDS011;23360;46.936;15.514;2022-07-31T09:20:56;4.60;;;1.40;;
37507;SDS011;23360;46.936;15.514;2022-07-31T09:23:23;4.30;;;1.65;;
37507;SDS011;23360;46.936;15.514;2022-07-31T09:26:01;3.67;;;1.10;;
37507;SDS011;23360;46.936;15.514;2022-07-31T09:28:32;5.57;;;1.35;;
37507;SDS011;23360;46.936;15.514;2022-07-31T09:30:59;4.80;;;1.67;;
37507;SDS011;23360;46.936;15.514;2022-07-31T09:33:26;3.58;;;1.23;;
37507;SDS011;23360;46.936;15.514;2022-07-31T09:35:53;6.05;;;1.42;;
37507;SDS011;23360;46.936;15.514;2022-07-31T09:38:20;5.28;;;1.58;;
37507;SDS011;23360;46.936;15.514;2022-07-31T09:40:48;2.80;;;1.20;;
37507;SDS011;23360;46.936;15.514;2022-07-31T09:43:22;5.53;;;0.95;;
37507;SDS011;23360;46.936;15.514;2022-07-31T09:45:57;3.20;;;1.35;;
37507;SDS011;23360;46.936;15.514;2022-07-31T09:48:26;5.10;;;1.40;;
37507;SDS011;23360;46.936;15.514;2022-07-31T09:50:58;5.43;;;1.35;;
37507;SDS011;23360;46.936;15.514;2022-07-31T09:53:25;3.08;;;1.20;;
37507;SDS011;23360;46.936;15.514;2022-07-31T09:55:52;8.98;;;1.40;;
37507;SDS011;23360;46.936;15.514;2022-07-31T09:58:19;5.00;;;1.30;;
37507;SDS011;23360;46.936;15.514;2022-07-31T10:00:46;5.05;;;1.50;;
37507;SDS011;23360;46.936;15.514;2022-07-31T10:03:13;8.27;;;1.30;;
37507;SDS011;23360;46.936;15.514;2022-07-31T10:05:43;7.70;;;1.23;;
37507;SDS011;23360;46.936;15.514;2022-07-31T10:08:13;11.00;;;1.50;;
37507;SDS011;23360;46.936;15.514;2022-07-31T10:10:42;4.57;;;1.27;;
37507;SDS011;23360;46.936;15.514;2022-07-31T10:13:10;3.85;;;1.55;;
37507;SDS011;23360;46.936;15.514;2022-07-31T10:15:38;8.18;;;1.63;;
37507;SDS011;23360;46.936;15.514;2022-07-31T10:18:05;4.95;;;1.20;;
37507;SDS011;23360;46.936;15.514;2022-07-31T10:20:34;2.53;;;1.00;;
37507;SDS011;23360;46.936;15.514;2022-07-31T10:23:03;9.48;;;1.38;;
37507;SDS011;23360;46.936;15.514;2022-07-31T10:25:30;11.85;;;1.92;;
37507;SDS011;23360;46.936;15.514;2022-07-31T10:27:59;4.38;;;1.40;;
37507;SDS011;23360;46.936;15.514;2022-07-31T10:30:26;3.28;;;1.15;;
37507;SDS011;23360;46.936;15.514;2022-07-31T10:32:54;6.20;;;1.13;;
37507;SDS011;23360;46.936;15.514;2022-07-31T10:35:20;5.05;;;1.40;;
37507;SDS011;23360;46.936;15.514;2022-07-31T10:37:57;2.88;;;1.10;;
37507;SDS011;23360;46.936;15.514;2022-07-31T10:40:39;5.05;;;0.98;;
37507;SDS011;23360;46.936;15.514;2022-07-31T10:43:18;5.07;;;0.98;;
37507;SDS011;23360;46.936;15.514;2022-07-31T10:45:46;3.35;;;1.10;;
37507;SDS011;23360;46.936;15.514;2022-07-31T10:48:13;4.20;;;1.02;;
37507;SDS011;23360;46.936;15.514;2022-07-31T10:50:39;4.78;;;0.95;;
37507;SDS011;23360;46.936;15.514;2022-07-31T10:53:07;6.57;;;1.42;;
37507;SDS011;23360;46.936;15.514;2022-07-31T10:55:34;3.13;;;0.85;;
37507;SDS011;23360;46.936;15.514;2022-07-31T10:58:13;2.75;;;1.30;;
37507;SDS011;23360;46.936;15.514;2022-07-31T11:00:41;5.22;;;1.00;;
37507;SDS011;23360;46.936;15.514;2022-07-31T11:03:11;8.73;;;1.00;;
37507;SDS011;23360;46.936;15.514;2022-07-31T11:05:38;2.17;;;0.98;;
37507;SDS011;23360;46.936;15.514;2022-07-31T11:08:25;4.55;;;0.82;;
37507;SDS011;23360;46.936;15.514;2022-07-31T11:10:52;5.85;;;1.13;;
37507;SDS011;23360;46.936;15.514;2022-07-31T11:13:19;3.80;;;0.90;;
37507;SDS011;23360;46.936;15.514;2022-07-31T11:16:04;2.00;;;0.82;;
37507;SDS011;23360;46.936;15.514;2022-07-31T11:18:31;2.50;;;0.80;;
37507;SDS011;23360;46.936;15.514;2022-07-31T11:21:00;2.95;;;0.88;;
37507;SDS011;23360;46.936;15.514;2022-07-31T11:23:48;2.47;;;0.85;;
37507;SDS011;23360;46.936;15.514;2022-07-31T11:26:28;3.92;;;1.23;;
37507;SDS011;23360;46.936;15.514;2022-07-31T11:29:07;2.72;;;0.80;;
37507;SDS011;23360;46.936;15.514;2022-07-31T11:31:54;4.65;;;1.17;;
37507;SDS011;23360;46.936;15.514;2022-07-31T11:34:20;1.80;;;0.80;;
37507;SDS011;23360;46.936;15.514;2022-07-31T11:36:47;2.42;;;0.98;;
37507;SDS011;23360;46.936;15.514;2022-07-31T11:39:16;3.78;;;0.98;;
37507;SDS011;23360;46.936;15.514;2022-07-31T11:41:43;6.00;;;0.77;;
37507;SDS011;23360;46.936;15.514;2022-07-31T11:44:10;2.70;;;0.98;;
37507;SDS011;23360;46.936;15.514;2022-07-31T11:46:37;3.47;;;1.00;;
37507;SDS011;23360;46.936;15.514;2022-07-31T11:49:03;2.55;;;0.70;;
37507;SDS011;23360;46.936;15.514;2022-07-31T11:51:30;1.92;;;0.70;;
37507;SDS011;23360;46.936;15.514;2022-07-31T11:53:57;4.63;;;0.70;;
37507;SDS011;23360;46.936;15.514;2022-07-31T11:56:24;5.22;;;0.90;;
37507;SDS011;23360;46.936;15.514;2022-07-31T11:58:52;2.72;;;0.70;;
37507;SDS011;23360;46.936;15.514;2022-07-31T12:01:22;3.90;;;0.85;;
37507;SDS011;23360;46.936;15.514;2022-07-31T12:03:49;5.75;;;0.90;;
37507;SDS011;23360;46.936;15.514;2022-07-31T12:06:17;1.48;;;0.50;;
37507;SDS011;23360;46.936;15.514;2022-07-31T12:08:44;4.70;;;0.90;;
37507;SDS011;23360;46.936;15.514;2022-07-31T12:11:11;2.30;;;0.63;;
37507;SDS011;23360;46.936;15.514;2022-07-31T12:13:38;4.22;;;1.10;;
37507;SDS011;23360;46.936;15.514;2022-07-31T12:16:05;3.47;;;0.95;;
37507;SDS011;23360;46.936;15.514;2022-07-31T12:18:55;1.70;;;0.60;;
37507;SDS011;23360;46.936;15.514;2022-07-31T12:21:30;1.55;;;0.60;;
37507;SDS011;23360;46.936;15.514;2022-07-31T12:23:58;2.83;;;0.57;;
37507;SDS011;23360;46.936;15.514;2022-07-31T12:26:26;4.50;;;1.00;;
37507;SDS011;23360;46.936;15.514;2022-07-31T12:31:25;3.42;;;0.57;;
37507;SDS011;23360;46.936;15.514;2022-07-31T12:33:52;4.57;;;0.88;;
37507;SDS011;23360;46.936;15.514;2022-07-31T12:36:18;3.85;;;1.00;;
37507;SDS011;23360;46.936;15.514;2022-07-31T12:38:56;1.42;;;0.60;;
37507;SDS011;23360;46.936;15.514;2022-07-31T12:41:23;1.70;;;0.65;;
37507;SDS011;23360;46.936;15.514;2022-07-31T12:43:49;4.05;;;0.60;;
37507;SDS011;23360;46.936;15.514;2022-07-31T12:46:19;1.63;;;0.68;;
37507;SDS011;23360;46.936;15.514;2022-07-31T12:48:45;1.95;;;0.68;;
37507;SDS011;23360;46.936;15.514;2022-07-31T12:51:12;6.15;;;0.85;;
37507;SDS011;23360;46.936;15.514;2022-07-31T12:53:38;2.92;;;0.70;;
37507;SDS011;23360;46.936;15.514;2022-07-31T12:56:09;1.63;;;0.55;;
37507;SDS011;23360;46.936;15.514;2022-07-31T12:58:36;2.40;;;0.70;;
37507;SDS011;23360;46.936;15.514;2022-07-31T13:01:02;1.73;;;0.52;;
37507;SDS011;23360;46.936;15.514;2022-07-31T13:03:28;2.33;;;0.75;;
37507;SDS011;23360;46.936;15.514;2022-07-31T13:06:11;2.60;;;0.82;;
37507;SDS011;23360;46.936;15.514;2022-07-31T13:08:37;1.20;;;0.50;;
37507;SDS011;23360;46.936;15.514;2022-07-31T13:11:04;1.77;;;0.60;;
37507;SDS011;23360;46.936;15.514;2022-07-31T13:13:30;12.43;;;0.85;;
37507;SDS011;23360;46.936;15.514;2022-07-31T13:15:58;1.58;;;0.60;;
37507;SDS011;23360;46.936;15.514;2022-07-31T13:18:24;2.40;;;0.70;;
37507;SDS011;23360;46.936;15.514;2022-07-31T13:20:51;1.38;;;0.43;;
37507;SDS011;23360;46.936;15.514;2022-07-31T13:23:17;1.30;;;0.60;;
37507;SDS011;23360;46.936;15.514;2022-07-31T13:25:46;3.33;;;0.75;;
37507;SDS011;23360;46.936;15.514;2022-07-31T13:28:13;1.75;;;0.68;;
37507;SDS011;23360;46.936;15.514;2022-07-31T13:30:39;2.03;;;0.70;;
37507;SDS011;23360;46.936;15.514;2022-07-31T13:33:06;3.90;;;0.55;;
37507;SDS011;23360;46.936;15.514;2022-07-31T13:35:32;2.47;;;0.70;;
37507;SDS011;23360;46.936;15.514;2022-07-31T13:38:00;2.03;;;0.77;;
37507;SDS011;23360;46.936;15.514;2022-07-31T13:40:26;2.55;;;0.88;;
37507;SDS011;23360;46.936;15.514;2022-07-31T13:43:12;1.90;;;0.68;;
37507;SDS011;23360;46.936;15.514;2022-07-31T13:45:39;1.52;;;0.55;;
37507;SDS011;23360;46.936;15.514;2022-07-31T13:48:05;4.05;;;0.75;;
37507;SDS011;23360;46.936;15.514;2022-07-31T13:50:35;4.25;;;0.77;;
37507;SDS011;23360;46.936;15.514;2022-07-31T13:53:02;1.83;;;0.65;;
37507;SDS011;23360;46.936;15.514;2022-07-31T13:55:29;1.80;;;0.70;;
37507;SDS011;23360;46.936;15.514;2022-07-31T13:57:55;2.53;;;0.65;;
37507;SDS011;23360;46.936;15.514;2022-07-31T14:00:25;3.38;;;0.80;;
37507;SDS011;23360;46.936;15.514;2022-07-31T14:02:51;4.78;;;0.80;;
37507;SDS011;23360;46.936;15.514;2022-07-31T14:05:18;4.53;;;0.60;;
37507;SDS011;23360;46.936;15.514;2022-07-31T14:07:46;2.88;;;0.98;;
37507;SDS011;23360;46.936;15.514;2022-07-31T14:10:18;5.03;;;0.77;;
37507;SDS011;23360;46.936;15.514;2022-07-31T14:12:46;4.53;;;0.70;;
37507;SDS011;23360;46.936;15.514;2022-07-31T14:15:13;1.70;;;0.50;;
37507;SDS011;23360;46.936;15.514;2022-07-31T14:17:39;3.25;;;0.60;;
37507;SDS011;23360;46.936;15.514;2022-07-31T14:20:06;1.00;;;0.32;;
37507;SDS011;23360;46.936;15.514;2022-07-31T14:22:33;1.15;;;0.60;;
37507;SDS011;23360;46.936;15.514;2022-07-31T14:24:59;4.05;;;1.02;;
37507;SDS011;23360;46.936;15.514;2022-07-31T14:27:25;3.63;;;0.70;;
37507;SDS011;23360;46.936;15.514;2022-07-31T14:29:52;1.83;;;0.60;;
37507;SDS011;23360;46.936;15.514;2022-07-31T14:32:18;5.15;;;0.73;;
37507;SDS011;23360;46.936;15.514;2022-07-31T14:34:50;3.95;;;0.65;;
37507;SDS011;23360;46.936;15.514;2022-07-31T14:37:17;3.55;;;0.80;;
37507;SDS011;23360;46.936;15.514;2022-07-31T14:39:45;3.22;;;0.93;;
37507;SDS011;23360;46.936;15.514;2022-07-31T14:42:11;2.97;;;0.63;;
37507;SDS011;23360;46.936;15.514;2022-07-31T14:44:39;1.17;;;0.40;;
37507;SDS011;23360;46.936;15.514;2022-07-31T14:47:08;2.13;;;1.00;;
37507;SDS011;23360;46.936;15.514;2022-07-31T14:49:34;2.65;;;0.73;;
37507;SDS011;23360;46.936;15.514;2022-07-31T14:52:21;2.35;;;0.63;;